Time;durP1;ratioP1;P1;durP2;ratioP2;P2;SDS_P1;SDS_P2;PMS_P1;PMS_P2;Temp;Humidity;BMP_temperature;BMP_pressure;BME280_temperature;BME280_humidity;BME280_pressure;Samples;Min_cycle;Max_cycle;Signal;HPM_P1;HPM_P2
2021/10/28 00:12:12;;;;;;;18.85;11.53;;;;;;;7.30;65.00;101389.59;1753963;80;21506;-57
2021/10/28 00:12:29;;;;;;;17.20;10.82;;;;;;;7.44;64.69;101364.01;1772492;79;21038;-58
2021/10/28 00:14:56;;;;;;;18.37;12.00;;;;;;;7.40;64.65;101359.39;1774631;80;21219;-59
2021/10/28 00:17:39;;;;;;;18.27;11.20;;;;;;;7.37;64.61;101355.62;1781517;78;20975;-59
2021/10/28 00:19:52;;;;;;;19.23;11.55;;;;;;;7.35;64.67;101344.86;1771610;80;21074;-59
2021/10/28 00:22:18;;;;;;;19.45;11.95;;;;;;;7.30;64.69;101344.25;1776732;78;22318;-59
2021/10/28 00:24:46;;;;;;;21.68;11.83;;;;;;;7.25;64.83;101344.00;1789177;78;21045;-59
2021/10/28 00:27:13;;;;;;;20.60;12.05;;;;;;;7.28;64.91;101343.45;1776955;79;21140;-59
2021/10/28 00:29:39;;;;;;;16.93;11.25;;;;;;;7.35;64.80;101335.22;1773097;78;21773;-60
2021/10/28 00:32:08;;;;;;;17.57;11.12;;;;;;;7.41;64.79;101332.73;1770644;78;22308;-57
2021/10/28 00:34:34;;;;;;;24.92;11.03;;;;;;;7.40;64.80;101333.69;1779373;79;21041;-58
2021/10/28 00:37:01;;;;;;;17.57;11.53;;;;;;;7.38;64.83;101335.51;1781189;80;21082;-58
2021/10/28 00:39:27;;;;;;;16.02;10.40;;;;;;;7.34;64.87;101336.61;1752928;80;21359;-58
2021/10/28 00:41:54;;;;;;;17.98;11.57;;;;;;;7.32;64.92;101337.16;1779298;78;21030;-58
2021/10/28 00:44:21;;;;;;;19.17;12.00;;;;;;;7.29;64.97;101336.00;1778205;78;21054;-58
2021/10/28 00:46:47;;;;;;;19.30;11.68;;;;;;;7.28;65.01;101343.45;1780603;78;21135;-59
2021/10/28 00:49:13;;;;;;;19.12;11.28;;;;;;;7.25;64.98;101336.14;1779952;79;21580;-59
2021/10/28 00:51:41;;;;;;;19.73;11.20;;;;;;;7.22;65.04;101331.06;1775666;78;21195;-59
2021/10/28 00:54:11;;;;;;;17.55;11.95;;;;;;;7.25;65.00;101330.91;1775304;78;21081;-59
2021/10/28 00:56:39;;;;;;;21.00;11.78;;;;;;;7.33;64.78;101327.91;1779584;78;21527;-59
2021/10/28 00:59:05;;;;;;;17.45;11.73;;;;;;;7.41;64.72;101324.88;1763451;78;21094;-59
2021/10/28 01:01:33;;;;;;;18.80;12.33;;;;;;;7.47;64.66;101327.67;1778240;78;21492;-59
2021/10/28 01:03:59;;;;;;;19.65;12.03;;;;;;;7.49;64.68;101325.33;1773543;78;21218;-59
2021/10/28 01:06:26;;;;;;;18.37;11.28;;;;;;;7.49;64.57;101324.02;1778540;78;21046;-59
2021/10/28 01:08:52;;;;;;;17.82;11.53;;;;;;;7.47;64.53;101338.98;1780324;78;21045;-60
2021/10/28 01:11:19;;;;;;;18.90;12.60;;;;;;;7.43;64.56;101330.88;1781345;78;21727;-59
2021/10/28 01:13:48;;;;;;;24.95;12.88;;;;;;;7.42;64.56;101326.59;1774989;78;21093;-58
2021/10/28 01:16:15;;;;;;;20.25;12.35;;;;;;;7.41;64.57;101328.37;1778757;78;21160;-58
2021/10/28 01:18:42;;;;;;;18.42;11.70;;;;;;;7.40;64.62;101324.52;1748746;79;21093;-59
2021/10/28 01:21:09;;;;;;;23.20;13.03;;;;;;;7.38;64.69;101322.41;1749975;80;21017;-58
2021/10/28 01:23:36;;;;;;;21.60;11.95;;;;;;;7.36;64.72;101310.74;1779026;78;21057;-59
2021/10/28 01:26:06;;;;;;;19.65;11.57;;;;;;;7.40;64.61;101311.42;1782457;78;21558;-59
2021/10/28 01:28:36;;;;;;;18.12;11.90;;;;;;;7.48;64.39;101302.71;1778776;78;22447;-58
2021/10/28 01:31:07;;;;;;;18.82;12.18;;;;;;;7.55;64.31;101305.86;1773977;80;20998;-58
2021/10/28 01:33:35;;;;;;;20.27;12.05;;;;;;;7.58;64.22;101322.69;1771008;80;21316;-58
2021/10/28 01:36:05;;;;;;;18.95;11.43;;;;;;;7.57;64.23;101323.64;1776195;78;21582;-59
2021/10/28 01:38:31;;;;;;;18.60;11.80;;;;;;;7.54;64.27;101318.08;1775797;80;22328;-59
2021/10/28 01:41:03;;;;;;;19.60;12.40;;;;;;;7.53;64.29;101314.23;1774073;78;21141;-59
2021/10/28 01:43:31;;;;;;;19.60;13.48;;;;;;;7.50;64.29;101308.70;1746283;80;21013;-59
2021/10/28 01:45:57;;;;;;;20.27;12.88;;;;;;;7.44;64.36;101307.70;1779247;78;21059;-58
2021/10/28 01:48:24;;;;;;;22.98;12.33;;;;;;;7.37;64.56;101291.94;1771529;78;21030;-58
2021/10/28 01:50:51;;;;;;;22.98;13.22;;;;;;;7.32;64.67;101278.25;1775935;78;21105;-59
2021/10/28 01:53:18;;;;;;;21.40;12.90;;;;;;;7.26;64.81;101289.86;1775987;80;21829;-58
2021/10/28 01:55:45;;;;;;;21.02;13.48;;;;;;;7.25;64.82;101292.11;1782397;78;21021;-59
2021/10/28 01:58:12;;;;;;;20.40;12.90;;;;;;;7.29;64.79;101296.25;1771414;79;21117;-58
2021/10/28 02:00:41;;;;;;;16.45;11.60;;;;;;;7.34;64.83;101299.95;1748836;79;21105;-59
2021/10/28 02:03:08;;;;;;;22.75;12.88;;;;;;;7.35;64.88;101293.33;1772822;79;21058;-58
2021/10/28 02:05:34;;;;;;;21.95;13.45;;;;;;;7.33;64.96;101299.11;1767719;78;21890;-59
2021/10/28 02:08:01;;;;;;;27.02;13.80;;;;;;;7.30;65.12;101304.50;1770811;79;21090;-59
2021/10/28 02:10:27;;;;;;;18.52;11.65;;;;;;;7.28;65.16;101298.95;1768324;78;21531;-59
2021/10/28 02:12:56;;;;;;;23.40;14.90;;;;;;;7.26;65.21;101308.19;1768252;78;21055;-59
2021/10/28 02:15:23;;;;;;;25.90;13.62;;;;;;;7.21;65.28;101305.83;1769174;78;21806;-58
2021/10/28 02:17:49;;;;;;;22.40;13.28;;;;;;;7.17;65.38;101300.34;1772345;79;21078;-57
2021/10/28 02:20:16;;;;;;;21.75;14.03;;;;;;;7.18;65.39;101294.20;1750494;80;21046;-58
2021/10/28 02:22:44;;;;;;;27.70;14.93;;;;;;;7.15;65.38;101285.66;1747683;78;21117;-58
2021/10/28 02:25:11;;;;;;;23.98;14.03;;;;;;;7.17;65.34;101296.89;1776240;79;21085;-59
2021/10/28 02:27:39;;;;;;;22.32;14.63;;;;;;;7.23;65.15;101301.36;1769617;78;21082;-60
2021/10/28 02:30:07;;;;;;;20.90;13.40;;;;;;;7.27;65.09;101307.27;1776444;78;22158;-58
2021/10/28 02:32:34;;;;;;;20.70;13.72;;;;;;;7.32;65.10;101311.81;1747429;78;21069;-58
2021/10/28 02:35:01;;;;;;;23.22;14.43;;;;;;;7.33;65.02;101303.04;1746242;78;21522;-57
2021/10/28 02:37:28;;;;;;;21.45;14.20;;;;;;;7.33;65.03;101311.34;1768452;78;21089;-57
2021/10/28 02:39:54;;;;;;;22.42;13.35;;;;;;;7.32;64.98;101311.81;1743806;80;21085;-58
2021/10/28 02:42:21;;;;;;;22.55;14.75;;;;;;;7.32;64.89;101317.52;1768623;79;22288;-58
2021/10/28 02:44:49;;;;;;;20.00;14.80;;;;;;;7.31;64.83;101315.34;1769242;78;21094;-58
2021/10/28 02:47:15;;;;;;;23.85;15.18;;;;;;;7.29;64.75;101316.36;1767926;78;21097;-58
2021/10/28 02:49:42;;;;;;;27.58;13.80;;;;;;;7.25;64.73;101317.82;1771168;78;21370;-58
2021/10/28 02:52:08;;;;;;;19.27;13.65;;;;;;;7.21;64.77;101311.06;1769794;78;21754;-58
2021/10/28 02:54:37;;;;;;;26.82;14.70;;;;;;;7.16;64.87;101310.89;1770269;78;23196;-58
2021/10/28 02:57:07;;;;;;;22.32;14.33;;;;;;;7.16;64.87;101300.42;1765918;78;21034;-59
2021/10/28 02:59:34;;;;;;;20.27;14.15;;;;;;;7.21;64.75;101299.28;1768374;78;22284;-58
2021/10/28 03:02:01;;;;;;;23.35;14.23;;;;;;;7.24;64.78;101298.27;1770984;78;21133;-58
2021/10/28 03:04:27;;;;;;;21.50;14.33;;;;;;;7.24;64.85;101294.34;1744435;80;21073;-58
2021/10/28 03:06:54;;;;;;;21.77;14.93;;;;;;;7.21;64.88;101290.56;1744434;80;21268;-58
2021/10/28 03:09:23;;;;;;;23.00;14.58;;;;;;;7.16;64.94;101289.52;1772193;78;21696;-58
2021/10/28 03:11:51;;;;;;;27.07;14.45;;;;;;;7.13;65.00;101288.36;1774036;78;21026;-58
2021/10/28 03:14:21;;;;;;;22.20;14.23;;;;;;;7.09;65.08;101295.97;1767493;79;21341;-57
2021/10/28 03:16:54;;;;;;;22.15;14.50;;;;;;;7.05;65.19;101293.97;1773900;79;21050;-57
2021/10/28 03:19:40;;;;;;;26.12;14.80;;;;;;;7.03;65.29;101287.13;1748725;80;21045;-57
2021/10/28 03:27:30;;;;;;;27.70;17.07;;;;;;;6.85;65.76;101293.66;1772772;78;21742;-58
2021/10/28 03:29:57;;;;;;;29.87;16.85;;;;;;;6.89;65.79;101287.81;1739542;80;21114;-58
2021/10/28 03:32:25;;;;;;;23.18;15.48;;;;;;;7.00;65.65;101286.81;1773738;79;21157;-57
2021/10/28 03:34:52;;;;;;;22.15;15.63;;;;;;;7.08;65.59;101278.59;1770539;79;21120;-58
2021/10/28 03:37:38;;;;;;;27.37;14.87;;;;;;;7.13;65.48;101280.95;1769011;79;21054;-58
2021/10/28 04:30:17;;;;;;;27.73;16.48;;;;;;;7.49;65.28;101278.20;1767927;78;21037;-57
2021/10/28 04:32:44;;;;;;;24.27;15.40;;;;;;;7.56;65.43;101286.10;1740023;80;21059;-58
2021/10/28 04:35:10;;;;;;;21.75;15.43;;;;;;;7.72;65.29;101270.91;1761915;79;21051;-57
2021/10/28 04:37:37;;;;;;;23.65;15.45;;;;;;;7.87;65.08;101276.62;1732739;80;21121;-57
2021/10/28 04:40:06;;;;;;;23.50;15.48;;;;;;;7.98;64.98;101268.16;1768364;79;21060;-59
2021/10/28 04:42:33;;;;;;;25.72;16.65;;;;;;;8.00;64.97;101268.91;1774716;78;21094;-59
2021/10/28 04:45:00;;;;;;;21.25;15.95;;;;;;;8.00;65.00;101272.84;1749734;80;21056;-57
2021/10/28 04:47:27;;;;;;;27.87;18.35;;;;;;;8.02;65.02;101265.77;1750620;80;21171;-56
2021/10/28 04:49:53;;;;;;;24.72;16.77;;;;;;;8.04;64.90;101271.76;1754224;79;21161;-57
2021/10/28 04:52:22;;;;;;;27.52;16.95;;;;;;;8.07;64.85;101263.73;1748739;78;21104;-57
2021/10/28 04:54:49;;;;;;;30.65;16.95;;;;;;;8.10;64.81;101260.95;1777292;78;21041;-57
2021/10/28 04:57:15;;;;;;;26.70;16.80;;;;;;;8.13;64.76;101255.98;1759841;79;21593;-57
2021/10/28 04:59:42;;;;;;;26.73;16.57;;;;;;;8.12;64.67;101253.84;1737155;80;21070;-58
2021/10/28 05:02:09;;;;;;;23.18;15.28;;;;;;;8.18;64.68;101252.63;1762663;79;21559;-61
2021/10/28 05:04:36;;;;;;;22.90;16.12;;;;;;;8.28;64.58;101248.56;1736964;80;21089;-58
2021/10/28 05:07:04;;;;;;;27.20;17.20;;;;;;;8.38;64.47;101254.97;1764516;79;21054;-58
2021/10/28 05:09:32;;;;;;;29.95;17.02;;;;;;;8.43;64.36;101263.09;1764992;80;21070;-58
2021/10/28 05:11:59;;;;;;;23.40;16.02;;;;;;;8.43;64.46;101259.98;1759923;79;21054;-59
2021/10/28 05:14:26;;;;;;;26.05;16.35;;;;;;;8.43;64.41;101253.44;1763169;79;21210;-57
2021/10/28 05:16:58;;;;;;;29.42;16.37;;;;;;;8.42;64.43;101263.50;1758693;79;22068;-57
2021/10/28 05:19:29;;;;;;;28.02;16.93;;;;;;;8.38;64.43;101262.84;1764325;79;21548;-58
2021/10/28 05:21:54;;;;;;;27.65;16.57;;;;;;;8.37;64.58;101260.30;1726335;80;21334;-56
2021/10/28 05:24:21;;;;;;;26.55;18.05;;;;;;;8.34;64.61;101260.50;1757081;79;20991;-59
2021/10/28 05:26:47;;;;;;;27.35;16.50;;;;;;;8.31;64.67;101269.84;1760526;80;21123;-58
2021/10/28 05:29:13;;;;;;;26.52;16.57;;;;;;;8.33;64.76;101264.04;1758837;79;21137;-57
2021/10/28 05:31:40;;;;;;;22.25;16.70;;;;;;;8.46;64.66;101260.30;1738623;80;21052;-58
2021/10/28 05:34:06;;;;;;;24.43;17.82;;;;;;;8.57;64.44;101259.19;1691503;82;21172;-59
2021/10/28 05:36:32;;;;;;;28.77;19.20;;;;;;;8.60;64.26;101255.08;1722053;81;21363;-59
2021/10/28 05:38:59;;;;;;;33.55;18.65;;;;;;;8.59;64.10;101253.41;1746521;80;21141;-57
2021/10/28 05:41:25;;;;;;;26.95;17.55;;;;;;;8.56;64.24;101261.45;1725812;81;21436;-58
2021/10/28 05:43:51;;;;;;;26.77;16.55;;;;;;;8.55;64.20;101251.88;1724074;81;21045;-56
2021/10/28 05:46:17;;;;;;;29.60;16.57;;;;;;;8.52;64.21;101248.98;1712728;81;21522;-61
2021/10/28 05:48:44;;;;;;;23.90;16.42;;;;;;;8.49;64.32;101258.78;1693140;82;20991;-57
2021/10/28 05:51:11;;;;;;;24.80;17.15;;;;;;;8.44;64.37;101260.83;1716891;81;21830;-60
2021/10/28 05:53:39;;;;;;;32.83;18.20;;;;;;;8.43;64.48;101269.17;1722819;81;21027;-57
2021/10/28 05:56:05;;;;;;;28.47;17.52;;;;;;;8.50;64.43;101259.17;1697563;81;21081;-57
2021/10/28 05:58:31;;;;;;;29.75;17.85;;;;;;;8.60;64.34;101280.01;1729161;81;21037;-59
2021/10/28 06:01:01;;;;;;;24.20;15.93;;;;;;;8.67;64.21;101271.32;1718180;81;21073;-58
2021/10/28 06:03:25;;;;;;;22.30;14.87;;;;;;;8.69;64.24;101274.25;1688928;83;21056;-58
2021/10/28 06:05:52;;;;;;;24.52;16.73;;;;;;;8.75;64.11;101274.34;1715685;81;21045;-58
2021/10/28 06:08:19;;;;;;;25.12;17.90;;;;;;;8.76;63.93;101283.05;1725270;81;21081;-59
2021/10/28 06:10:45;;;;;;;33.65;17.07;;;;;;;8.74;63.82;101281.83;1722766;81;21005;-60
2021/10/28 06:13:12;;;;;;;25.00;17.17;;;;;;;8.70;63.91;101292.97;1727255;81;21048;-58
2021/10/28 06:15:39;;;;;;;23.50;16.73;;;;;;;8.69;64.03;101284.73;1699165;82;21138;-58
2021/10/28 06:18:35;;;;;;;24.05;16.80;;;;;;;8.68;64.06;101272.55;1725882;81;21108;-59
2021/10/28 06:20:39;;;;;;;21.85;16.35;;;;;;;8.73;63.99;101269.66;1722153;81;21060;-60
2021/10/28 06:23:06;;;;;;;27.85;17.17;;;;;;;8.84;63.81;101278.20;1742796;80;21140;-58
2021/10/28 06:25:34;;;;;;;25.85;17.73;;;;;;;8.86;63.62;101277.64;1751257;80;21101;-60
2021/10/28 06:28:01;;;;;;;28.70;17.27;;;;;;;8.86;63.68;101294.70;1745855;81;21487;-59
2021/10/28 06:30:28;;;;;;;24.67;17.30;;;;;;;8.86;63.76;101301.27;1719153;80;21081;-59
2021/10/28 06:32:58;;;;;;;26.17;18.40;;;;;;;8.87;63.63;101297.24;1778231;78;22616;-57
2021/10/28 06:35:25;;;;;;;26.12;17.48;;;;;;;8.87;63.68;101300.34;1750239;78;22306;-57
2021/10/28 06:37:52;;;;;;;24.92;17.40;;;;;;;8.84;63.73;101301.83;1781668;78;21036;-58
2021/10/28 06:40:23;;;;;;;23.85;16.27;;;;;;;8.82;63.88;101305.84;1715459;80;21173;-58
2021/10/28 06:42:50;;;;;;;24.95;18.35;;;;;;;8.82;63.92;101308.95;1725721;80;21046;-57
2021/10/28 06:45:17;;;;;;;26.10;17.57;;;;;;;8.86;63.86;101302.58;1729317;80;21913;-59
2021/10/28 06:47:44;;;;;;;28.38;17.98;;;;;;;8.97;63.71;101317.72;1755284;80;21042;-58
2021/10/28 06:50:13;;;;;;;31.10;18.77;;;;;;;9.00;63.60;101313.61;1775660;78;22152;-59
2021/10/28 06:53:09;;;;;;;28.55;17.55;;;;;;;9.00;63.71;101306.56;1782471;78;21549;-58
2021/10/28 07:03:39;;;;;;;33.70;17.65;;;;;;;9.02;64.03;101298.13;1761425;79;21133;-58
2021/10/28 07:06:18;;;;;;;27.22;17.25;;;;;;;9.04;64.03;101289.69;1763736;79;21656;-58
2021/10/28 07:08:39;;;;;;;24.82;16.32;;;;;;;9.13;63.92;101287.01;1764897;79;21014;-57
2021/10/28 07:11:10;;;;;;;23.42;16.90;;;;;;;9.28;63.66;101295.28;1768538;79;21081;-57
2021/10/28 07:13:35;;;;;;;29.70;18.55;;;;;;;9.40;63.51;101300.73;1766930;79;21039;-57
2021/10/28 07:16:13;;;;;;;27.22;16.75;;;;;;;9.44;63.41;101297.80;1766480;79;21094;-57
2021/10/28 07:18:49;;;;;;;25.85;16.15;;;;;;;9.47;63.33;101301.56;1765957;79;21860;-56
2021/10/28 07:21:44;;;;;;;24.50;17.02;;;;;;;9.51;63.23;101308.79;1736592;79;21147;-57
2021/10/28 07:26:54;;;;;;;28.95;16.65;;;;;;;9.55;63.37;101298.94;1767163;79;20235;-57
2021/10/28 07:32:13;;;;;;;24.67;16.75;;;;;;;9.58;63.39;101296.99;1769650;79;21148;-58
2021/10/28 07:34:48;;;;;;;22.48;16.37;;;;;;;9.66;63.40;101302.59;1767221;79;22305;-58
2021/10/28 08:15:06;;;;;;;22.55;15.85;;;;;;;10.50;62.55;101258.76;1786022;78;21073;-58
2021/10/28 08:20:18;;;;;;;28.80;15.60;;;;;;;10.59;62.36;101259.48;1759216;79;21057;-57
2021/10/28 08:22:42;;;;;;;24.25;14.95;;;;;;;10.68;62.17;101259.82;1753443;79;21027;-60
2021/10/28 08:30:39;;;;;;;25.32;15.93;;;;;;;10.96;61.76;101255.70;1787433;78;21444;-60
2021/10/28 08:33:06;;;;;;;22.58;14.93;;;;;;;10.99;61.71;101243.27;1728774;79;21061;-57
2021/10/28 08:35:33;;;;;;;21.57;15.70;;;;;;;11.02;61.82;101241.75;1784558;78;21114;-57
2021/10/28 08:38:01;;;;;;;26.20;15.40;;;;;;;11.08;61.72;101246.13;1783782;78;21146;-58
2021/10/28 08:40:27;;;;;;;22.62;14.40;;;;;;;11.16;61.56;101241.62;1779625;78;21107;-58
2021/10/28 08:42:54;;;;;;;20.70;13.55;;;;;;;11.23;61.41;101240.28;1780929;78;21076;-58
2021/10/28 08:47:12;;;;;;;25.15;14.98;;;;;;;11.36;61.34;101237.61;1792431;77;22620;-56
2021/10/28 08:49:46;;;;;;;19.98;14.25;;;;;;;11.45;61.13;101244.89;1764651;78;21524;-58
2021/10/28 08:59:55;;;;;;;20.75;13.70;;;;;;;11.78;60.04;101246.56;1767196;78;21574;-58
2021/10/28 09:19:40;;;;;;;22.13;13.98;;;;;;;12.16;59.67;101266.25;1686073;82;21659;-58
2021/10/28 09:24:45;;;;;;;;;;;;;;;12.45;59.14;101250.91;1736112;81;21536;-59
2021/10/28 09:29:56;;;;;;;18.55;12.18;;;;;;;12.58;58.57;101250.84;1712999;81;20971;-58
2021/10/28 09:32:38;;;;;;;27.73;13.38;;;;;;;12.62;58.58;101243.53;1713557;81;21087;-59
2021/10/28 09:35:26;;;;;;;20.35;12.50;;;;;;;12.66;58.39;101250.28;1707816;81;21647;-59
2021/10/28 09:46:42;;;;;;;17.87;10.48;;;;;;;12.63;58.33;101243.91;1693826;81;21194;-58
2021/10/28 09:52:14;;;;;;;17.85;10.82;;;;;;;12.66;58.63;101231.80;1722920;80;21084;-58
2021/10/28 09:54:45;;;;;;;21.85;11.10;;;;;;;12.70;58.48;101233.24;1746420;79;21027;-58
2021/10/28 10:00:03;;;;;;;23.87;11.78;;;;;;;12.83;58.31;101215.52;1735507;81;21160;-58
2021/10/28 10:02:42;;;;;;;21.33;11.97;;;;;;;12.90;58.13;101219.84;1758543;80;21145;-58
2021/10/28 10:05:19;;;;;;;21.42;11.35;;;;;;;13.01;57.94;101219.01;1722096;81;21083;-59
2021/10/28 10:07:49;;;;;;;17.98;11.25;;;;;;;13.17;57.38;101230.08;1703864;81;21093;-57
2021/10/28 10:10:17;;;;;;;18.42;12.60;;;;;;;13.27;57.12;101226.25;1748911;81;21081;-59
2021/10/28 10:12:44;;;;;;;21.05;11.57;;;;;;;13.34;57.26;101231.92;1728882;81;21118;-57
2021/10/28 10:15:12;;;;;;;21.85;12.98;;;;;;;13.40;56.58;101221.34;1722058;81;21004;-59
2021/10/28 10:17:39;;;;;;;20.50;13.18;;;;;;;13.40;56.54;101239.39;1748108;81;21516;-59
2021/10/28 10:20:11;;;;;;;16.62;12.07;;;;;;;13.41;56.44;101233.13;1750474;80;21103;-59
2021/10/28 10:22:52;;;;;;;20.05;11.95;;;;;;;13.41;56.48;101228.33;1747136;81;21050;-59
2021/10/28 11:05:54;;;;;;;16.12;11.00;;;;;;;14.53;54.06;101211.80;1711399;80;21075;-59
2021/10/28 11:15:48;;;;;;;21.20;11.78;;;;;;;14.57;53.86;101207.91;1713102;80;21221;-58
2021/10/28 12:46:25;;;;;;;12.35;7.90;;;;;;;15.56;52.06;101228.20;1755883;79;21088;-58
2021/10/28 13:03:29;;;;;;;14.55;9.08;;;;;;;15.36;52.84;101228.11;1735779;80;21078;-58
2021/10/28 13:35:58;;;;;;;12.93;8.40;;;;;;;15.12;53.67;101246.16;1762131;80;20991;-58
2021/10/28 13:51:41;;;;;;;11.63;7.28;;;;;;;15.11;53.66;101265.17;1676207;82;21057;-57
2021/10/28 13:54:22;;;;;;;13.78;7.42;;;;;;;15.08;53.73;101268.58;1760233;79;22045;-59
2021/10/28 14:35:08;;;;;;;14.65;8.50;;;;;;;14.83;54.69;101275.48;1760836;79;21142;-59
2021/10/28 14:59:36;;;;;;;17.92;8.98;;;;;;;14.87;55.00;101286.66;1740939;79;21122;-57
2021/10/28 15:28:45;;;;;;;15.10;8.75;;;;;;;15.07;54.87;101312.81;1749963;79;22962;-60
2021/10/28 15:36:34;;;;;;;16.85;9.85;;;;;;;15.11;54.56;101323.98;1702856;82;21108;-60
2021/10/28 15:55:22;;;;;;;23.05;11.30;;;;;;;15.07;54.54;101337.16;1753620;79;21207;-60
2021/10/28 15:57:30;;;;;;;18.52;11.00;;;;;;;15.05;54.53;101343.41;1696498;82;21074;-61
2021/10/28 16:24:30;;;;;;;17.43;9.03;;;;;;;14.94;55.32;101365.16;1752854;79;21130;-58
2021/10/28 16:26:56;;;;;;;15.63;9.90;;;;;;;14.90;55.54;101364.57;1750942;79;21294;-58
2021/10/28 16:29:23;;;;;;;16.02;9.53;;;;;;;14.89;55.65;101371.32;1755433;79;21047;-58
2021/10/28 16:31:50;;;;;;;16.57;10.20;;;;;;;14.88;55.76;101374.47;1693463;82;21052;-58
2021/10/28 16:34:18;;;;;;;18.10;10.53;;;;;;;14.85;55.89;101372.89;1748008;79;21103;-58
2021/10/28 16:36:45;;;;;;;17.15;9.50;;;;;;;14.84;56.01;101370.37;1753529;79;21051;-58
2021/10/28 16:39:13;;;;;;;14.28;9.70;;;;;;;14.83;56.10;101372.68;1753016;79;21024;-59
2021/10/28 16:41:43;;;;;;;14.23;8.90;;;;;;;14.82;56.17;101379.77;1738726;80;21050;-59
2021/10/28 16:44:10;;;;;;;13.60;8.20;;;;;;;14.87;56.14;101378.07;1745741;79;21608;-60
2021/10/28 16:46:37;;;;;;;16.00;9.53;;;;;;;14.98;56.00;101379.36;1753770;79;21139;-59
2021/10/28 16:49:06;;;;;;;15.40;9.83;;;;;;;15.07;55.94;101388.34;1747742;79;21036;-59
2021/10/28 16:51:33;;;;;;;14.15;9.60;;;;;;;15.12;55.90;101391.45;1758652;80;21034;-61
2021/10/28 16:53:59;;;;;;;14.03;9.70;;;;;;;15.16;55.83;101386.27;1726255;81;21604;-60
2021/10/28 16:56:26;;;;;;;15.20;10.13;;;;;;;15.19;55.80;101393.11;1748738;80;21040;-61
2021/10/28 16:58:52;;;;;;;14.30;10.60;;;;;;;15.21;55.76;101392.03;1721355;81;21575;-58
2021/10/28 17:01:18;;;;;;;14.65;9.75;;;;;;;15.23;55.73;101394.52;1745398;81;21060;-58
2021/10/28 17:03:45;;;;;;;18.75;9.53;;;;;;;15.22;55.70;101403.47;1744703;80;21074;-59
2021/10/28 17:06:15;;;;;;;17.37;9.73;;;;;;;15.21;55.72;101397.80;1749206;81;21059;-60
2021/10/28 17:08:40;;;;;;;17.27;8.58;;;;;;;15.20;55.77;101398.78;1753783;80;20984;-58
2021/10/28 17:11:07;;;;;;;14.63;9.98;;;;;;;15.16;55.89;101399.53;1750950;80;21117;-58
2021/10/28 17:13:34;;;;;;;13.93;8.80;;;;;;;15.13;55.97;101396.27;1752058;80;21686;-59
2021/10/28 17:16:01;;;;;;;15.75;8.93;;;;;;;15.13;56.08;101398.91;1751818;81;21027;-59
2021/10/28 17:18:28;;;;;;;16.05;9.98;;;;;;;15.12;56.28;101403.88;1725775;81;21081;-59
2021/10/28 17:21:02;;;;;;;13.43;9.20;;;;;;;15.10;56.39;101399.20;1753258;80;22167;-58
2021/10/28 17:23:38;;;;;;;14.23;8.08;;;;;;;15.09;56.45;101398.83;1746237;81;21151;-59
2021/10/28 17:25:57;;;;;;;14.05;8.65;;;;;;;15.08;56.50;101406.41;1745449;80;21047;-59
2021/10/28 17:28:23;;;;;;;13.15;8.28;;;;;;;15.07;56.54;101406.07;1745680;81;21665;-59
2021/10/28 17:30:50;;;;;;;17.17;8.63;;;;;;;15.06;56.63;101411.83;1749219;81;21070;-59
2021/10/28 17:33:17;;;;;;;13.90;7.87;;;;;;;15.05;56.74;101416.80;1727255;81;21456;-61
2021/10/28 17:35:43;;;;;;;12.10;7.75;;;;;;;15.09;56.74;101412.08;1753785;81;21496;-59
2021/10/28 17:38:09;;;;;;;11.88;7.20;;;;;;;15.17;56.74;101412.29;1682715;83;21078;-58
2021/10/28 17:40:37;;;;;;;14.75;8.75;;;;;;;15.23;56.72;101423.69;1749650;80;21070;-59
2021/10/28 17:43:10;;;;;;;14.00;8.35;;;;;;;15.26;56.73;101418.13;1748541;80;21134;-58
2021/10/28 17:45:36;;;;;;;11.97;8.00;;;;;;;15.28;56.73;101420.20;1722201;81;21761;-58
2021/10/28 17:48:02;;;;;;;12.05;7.22;;;;;;;15.30;56.73;101424.88;1719007;80;21835;-59
2021/10/28 17:50:28;;;;;;;13.62;8.58;;;;;;;15.30;56.68;101423.55;1748601;80;21011;-59
2021/10/28 17:52:55;;;;;;;11.50;7.42;;;;;;;15.28;56.70;101426.83;1708011;82;21498;-60
2021/10/28 17:55:21;;;;;;;13.75;7.37;;;;;;;15.28;56.72;101429.48;1725948;81;21023;-59
2021/10/28 17:57:49;;;;;;;12.75;7.67;;;;;;;15.25;56.78;101421.77;1747950;80;21937;-59
2021/10/28 18:00:18;;;;;;;14.83;7.72;;;;;;;15.19;56.87;101420.95;1748684;80;21113;-58
2021/10/28 18:02:45;;;;;;;12.82;6.80;;;;;;;15.12;57.01;101427.73;1728281;80;20980;-59
2021/10/28 18:05:11;;;;;;;11.28;7.47;;;;;;;15.03;57.22;101423.55;1729002;81;20976;-58
2021/10/28 18:07:39;;;;;;;12.13;7.47;;;;;;;14.97;57.41;101420.56;1704816;82;21470;-59
2021/10/28 18:10:07;;;;;;;13.85;8.25;;;;;;;14.92;57.57;101419.61;1724482;80;21074;-60
2021/10/28 18:12:38;;;;;;;14.20;8.15;;;;;;;14.90;57.74;101424.20;1747737;80;21118;-60
2021/10/28 18:15:06;;;;;;;10.80;7.37;;;;;;;14.87;57.82;101419.14;1707405;82;21272;-60
2021/10/28 18:17:33;;;;;;;9.18;7.22;;;;;;;14.86;57.85;101428.91;1697673;83;21015;-59
2021/10/28 18:20:02;;;;;;;11.70;7.28;;;;;;;14.88;57.88;101427.47;1663626;84;21059;-59
2021/10/28 18:22:29;;;;;;;12.05;7.08;;;;;;;14.93;57.87;101427.06;1705766;83;21054;-58
2021/10/28 18:24:57;;;;;;;13.85;7.35;;;;;;;15.03;57.73;101429.34;1751912;81;21144;-61
2021/10/28 18:27:24;;;;;;;12.28;8.43;;;;;;;15.11;57.59;101437.48;1723228;80;22257;-59
2021/10/28 18:29:50;;;;;;;12.55;9.03;;;;;;;15.16;57.49;101434.45;1750362;80;21002;-58
2021/10/28 18:32:19;;;;;;;12.55;8.55;;;;;;;15.15;57.43;101439.42;1747688;80;21175;-58
2021/10/28 18:34:45;;;;;;;14.68;8.40;;;;;;;15.12;57.53;101433.04;1747594;80;21739;-58
2021/10/28 18:37:11;;;;;;;13.53;8.73;;;;;;;15.10;57.54;101432.33;1747873;80;22392;-59
2021/10/28 18:39:40;;;;;;;12.82;8.58;;;;;;;15.07;57.60;101437.38;1746222;80;21086;-59
2021/10/28 18:42:07;;;;;;;13.22;8.35;;;;;;;15.05;57.64;101438.84;1742799;80;21436;-59
2021/10/28 18:44:34;;;;;;;13.60;9.20;;;;;;;15.04;57.65;101435.81;1744806;80;21623;-59
2021/10/28 18:47:01;;;;;;;12.95;9.45;;;;;;;15.03;57.70;101439.45;1749348;80;21074;-59
2021/10/28 18:49:28;;;;;;;13.10;8.90;;;;;;;15.00;57.80;101444.16;1718363;80;22275;-59
2021/10/28 18:51:54;;;;;;;14.45;9.48;;;;;;;14.99;57.91;101449.93;1737086;80;21048;-59
2021/10/28 18:54:22;;;;;;;15.88;8.83;;;;;;;14.97;57.95;101448.39;1741481;80;21102;-59
2021/10/28 18:56:48;;;;;;;12.82;8.43;;;;;;;14.95;58.01;101450.33;1735147;80;21379;-59
2021/10/28 18:59:16;;;;;;;13.68;9.05;;;;;;;14.90;58.09;101447.22;1737119;80;21038;-59
2021/10/28 19:01:45;;;;;;;13.40;9.28;;;;;;;14.85;58.18;101456.86;1738670;80;21441;-60
2021/10/28 19:04:13;;;;;;;13.65;8.20;;;;;;;14.79;58.35;101460.86;1708389;80;21106;-58
2021/10/28 19:06:41;;;;;;;13.30;8.68;;;;;;;14.77;58.47;101464.58;1647884;84;22349;-59
2021/10/28 19:09:07;;;;;;;12.58;7.65;;;;;;;14.76;58.54;101463.75;1737448;80;21121;-61
2021/10/28 19:11:35;;;;;;;11.85;7.92;;;;;;;14.81;58.56;101464.22;1735997;80;21062;-60
2021/10/28 19:14:04;;;;;;;14.30;8.65;;;;;;;14.92;58.41;101473.10;1675202;83;21223;-59
2021/10/28 19:16:30;;;;;;;13.90;8.38;;;;;;;15.00;58.30;101471.50;1739425;80;21112;-59
2021/10/28 19:18:57;;;;;;;15.20;8.20;;;;;;;15.07;58.20;101472.34;1708034;82;21595;-59
2021/10/28 19:21:24;;;;;;;15.80;8.90;;;;;;;15.11;58.20;101475.08;1738648;80;21067;-58
2021/10/28 19:23:55;;;;;;;14.05;8.90;;;;;;;15.11;58.16;101474.59;1737604;80;21114;-59
2021/10/28 19:26:21;;;;;;;13.58;8.35;;;;;;;15.12;58.16;101474.13;1744576;80;21063;-58
2021/10/28 19:28:47;;;;;;;13.35;9.20;;;;;;;15.07;58.18;101475.82;1738252;80;21110;-58
2021/10/28 19:31:20;;;;;;;14.40;9.33;;;;;;;15.05;58.26;101479.09;1738508;80;21082;-58
2021/10/28 19:33:53;;;;;;;13.43;8.45;;;;;;;15.00;58.38;101478.63;1708516;81;21052;-58
2021/10/28 19:36:38;;;;;;;14.68;8.98;;;;;;;14.95;58.47;101477.66;1730748;80;21026;-59
2021/10/28 19:42:05;;;;;;;15.08;8.63;;;;;;;14.80;58.82;101482.88;1669901;83;21087;-58